sensor_id;sensor_type;location;lat;lon;timestamp;P1;durP1;ratioP1;P2;durP2;ratioP2
49530;SDS011;38889;30.622;104.088;2022-08-05T00:00:24;8.10;;;7.35;;
49530;SDS011;38889;30.622;104.088;2022-08-05T00:02:51;8.18;;;7.47;;
49530;SDS011;38889;30.622;104.088;2022-08-05T00:05:19;8.35;;;7.60;;
49530;SDS011;38889;30.622;104.088;2022-08-05T00:07:47;8.30;;;7.55;;
49530;SDS011;38889;30.622;104.088;2022-08-05T00:10:14;9.10;;;8.30;;
49530;SDS011;38889;30.622;104.088;2022-08-05T00:12:41;8.68;;;7.88;;
49530;SDS011;38889;30.622;104.088;2022-08-05T00:15:09;8.70;;;7.85;;
49530;SDS011;38889;30.622;104.088;2022-08-05T00:17:36;8.98;;;8.07;;
49530;SDS011;38889;30.622;104.088;2022-08-05T00:20:03;10.00;;;9.00;;
49530;SDS011;38889;30.622;104.088;2022-08-05T00:22:31;9.20;;;8.18;;
49530;SDS011;38889;30.622;104.088;2022-08-05T00:24:58;9.77;;;8.77;;
49530;SDS011;38889;30.622;104.088;2022-08-05T00:27:26;10.20;;;8.82;;
49530;SDS011;38889;30.622;104.088;2022-08-05T00:29:55;9.55;;;8.50;;
49530;SDS011;38889;30.622;104.088;2022-08-05T00:32:22;10.18;;;8.75;;
49530;SDS011;38889;30.622;104.088;2022-08-05T00:34:50;10.70;;;9.60;;
49530;SDS011;38889;30.622;104.088;2022-08-05T00:37:17;9.98;;;8.98;;
49530;SDS011;38889;30.622;104.088;2022-08-05T00:39:44;9.68;;;8.77;;
49530;SDS011;38889;30.622;104.088;2022-08-05T00:42:11;10.45;;;9.18;;
49530;SDS011;38889;30.622;104.088;2022-08-05T00:44:41;10.27;;;9.20;;
49530;SDS011;38889;30.622;104.088;2022-08-05T00:47:08;10.27;;;9.38;;
49530;SDS011;38889;30.622;104.088;2022-08-05T00:49:36;10.30;;;9.15;;
49530;SDS011;38889;30.622;104.088;2022-08-05T00:52:03;11.20;;;10.10;;
49530;SDS011;38889;30.622;104.088;2022-08-05T00:54:30;11.05;;;9.95;;
49530;SDS011;38889;30.622;104.088;2022-08-05T00:56:58;11.32;;;9.75;;
49530;SDS011;38889;30.622;104.088;2022-08-05T00:59:25;11.88;;;10.65;;
49530;SDS011;38889;30.622;104.088;2022-08-05T01:01:52;12.27;;;10.85;;
49530;SDS011;38889;30.622;104.088;2022-08-05T01:04:19;12.93;;;11.57;;
49530;SDS011;38889;30.622;104.088;2022-08-05T01:06:53;12.23;;;11.02;;
49530;SDS011;38889;30.622;104.088;2022-08-05T01:09:21;11.80;;;10.70;;
49530;SDS011;38889;30.622;104.088;2022-08-05T01:11:49;12.65;;;11.45;;
49530;SDS011;38889;30.622;104.088;2022-08-05T01:17:04;16.55;;;14.85;;
49530;SDS011;38889;30.622;104.088;2022-08-05T01:30:38;17.65;;;15.85;;
49530;SDS011;38889;30.622;104.088;2022-08-05T01:33:12;16.63;;;15.02;;
49530;SDS011;38889;30.622;104.088;2022-08-05T01:35:42;17.08;;;15.48;;
49530;SDS011;38889;30.622;104.088;2022-08-05T01:38:12;16.42;;;14.82;;
49530;SDS011;38889;30.622;104.088;2022-08-05T01:40:42;15.63;;;14.23;;
49530;SDS011;38889;30.622;104.088;2022-08-05T01:43:11;17.35;;;15.65;;
49530;SDS011;38889;30.622;104.088;2022-08-05T01:45:40;16.60;;;15.00;;
49530;SDS011;38889;30.622;104.088;2022-08-05T01:48:08;16.08;;;14.68;;
49530;SDS011;38889;30.622;104.088;2022-08-05T01:50:37;15.02;;;13.48;;
49530;SDS011;38889;30.622;104.088;2022-08-05T01:53:12;15.32;;;13.82;;
49530;SDS011;38889;30.622;104.088;2022-08-05T01:55:42;14.57;;;13.18;;
49530;SDS011;38889;30.622;104.088;2022-08-05T01:58:11;15.25;;;13.85;;
49530;SDS011;38889;30.622;104.088;2022-08-05T02:00:44;15.70;;;14.05;;
49530;SDS011;38889;30.622;104.088;2022-08-05T02:03:21;15.73;;;14.27;;
49530;SDS011;38889;30.622;104.088;2022-08-05T02:05:51;16.10;;;14.43;;
49530;SDS011;38889;30.622;104.088;2022-08-05T02:08:20;19.00;;;17.13;;
49530;SDS011;38889;30.622;104.088;2022-08-05T02:10:49;18.08;;;16.38;;
49530;SDS011;38889;30.622;104.088;2022-08-05T02:13:27;18.27;;;16.50;;
49530;SDS011;38889;30.622;104.088;2022-08-05T02:16:06;16.65;;;15.05;;
49530;SDS011;38889;30.622;104.088;2022-08-05T02:18:46;14.75;;;13.35;;
49530;SDS011;38889;30.622;104.088;2022-08-05T02:21:32;13.77;;;12.48;;
49530;SDS011;38889;30.622;104.088;2022-08-05T02:24:05;14.57;;;13.18;;
49530;SDS011;38889;30.622;104.088;2022-08-05T02:26:43;13.90;;;12.70;;
49530;SDS011;38889;30.622;104.088;2022-08-05T02:29:23;13.45;;;12.25;;
49530;SDS011;38889;30.622;104.088;2022-08-05T02:31:55;13.85;;;12.45;;
49530;SDS011;38889;30.622;104.088;2022-08-05T02:34:25;13.35;;;12.13;;
49530;SDS011;38889;30.622;104.088;2022-08-05T02:36:57;13.75;;;12.40;;
49530;SDS011;38889;30.622;104.088;2022-08-05T02:39:28;13.07;;;11.75;;
49530;SDS011;38889;30.622;104.088;2022-08-05T02:42:01;12.20;;;11.10;;
49530;SDS011;38889;30.622;104.088;2022-08-05T02:44:32;12.07;;;10.98;;
49530;SDS011;38889;30.622;104.088;2022-08-05T02:47:01;12.27;;;11.07;;
49530;SDS011;38889;30.622;104.088;2022-08-05T02:49:36;13.23;;;12.02;;
49530;SDS011;38889;30.622;104.088;2022-08-05T02:52:08;13.60;;;12.20;;
49530;SDS011;38889;30.622;104.088;2022-08-05T02:54:38;15.13;;;13.52;;
49530;SDS011;38889;30.622;104.088;2022-08-05T02:57:12;17.52;;;15.43;;
49530;SDS011;38889;30.622;104.088;2022-08-05T02:59:43;19.02;;;16.95;;
49530;SDS011;38889;30.622;104.088;2022-08-05T03:02:12;19.80;;;17.90;;
49530;SDS011;38889;30.622;104.088;2022-08-05T03:04:41;19.88;;;17.98;;
49530;SDS011;38889;30.622;104.088;2022-08-05T03:07:08;20.50;;;18.30;;
49530;SDS011;38889;30.622;104.088;2022-08-05T03:09:36;18.83;;;16.92;;
49530;SDS011;38889;30.622;104.088;2022-08-05T03:12:04;18.42;;;16.50;;
49530;SDS011;38889;30.622;104.088;2022-08-05T03:14:32;17.92;;;15.20;;
49530;SDS011;38889;30.622;104.088;2022-08-05T03:17:00;16.95;;;15.27;;
49530;SDS011;38889;30.622;104.088;2022-08-05T03:19:27;16.50;;;14.90;;
49530;SDS011;38889;30.622;104.088;2022-08-05T03:21:54;16.23;;;14.63;;
49530;SDS011;38889;30.622;104.088;2022-08-05T03:24:21;16.55;;;14.82;;
49530;SDS011;38889;30.622;104.088;2022-08-05T03:26:52;16.48;;;14.73;;
49530;SDS011;38889;30.622;104.088;2022-08-05T03:29:19;15.48;;;13.98;;
49530;SDS011;38889;30.622;104.088;2022-08-05T03:31:46;16.30;;;14.30;;
49530;SDS011;38889;30.622;104.088;2022-08-05T03:34:13;15.07;;;13.50;;
49530;SDS011;38889;30.622;104.088;2022-08-05T03:36:41;14.65;;;13.10;;
49530;SDS011;38889;30.622;104.088;2022-08-05T03:39:08;15.32;;;13.82;;
49530;SDS011;38889;30.622;104.088;2022-08-05T03:41:35;14.82;;;13.23;;
49530;SDS011;38889;30.622;104.088;2022-08-05T03:44:02;14.82;;;13.32;;
49530;SDS011;38889;30.622;104.088;2022-08-05T03:46:30;13.18;;;11.88;;
49530;SDS011;38889;30.622;104.088;2022-08-05T03:48:57;14.32;;;12.52;;
49530;SDS011;38889;30.622;104.088;2022-08-05T03:51:29;13.48;;;11.30;;
49530;SDS011;38889;30.622;104.088;2022-08-05T03:54:13;12.30;;;10.23;;
49530;SDS011;38889;30.622;104.088;2022-08-05T03:56:47;10.38;;;8.85;;
49530;SDS011;38889;30.622;104.088;2022-08-05T03:59:22;10.57;;;8.30;;
49530;SDS011;38889;30.622;104.088;2022-08-05T04:01:57;8.70;;;7.82;;
49530;SDS011;38889;30.622;104.088;2022-08-05T04:04:28;9.93;;;8.23;;
49530;SDS011;38889;30.622;104.088;2022-08-05T04:06:57;7.97;;;7.03;;
49530;SDS011;38889;30.622;104.088;2022-08-05T04:09:25;8.10;;;7.30;;
49530;SDS011;38889;30.622;104.088;2022-08-05T04:11:54;8.52;;;7.57;;
49530;SDS011;38889;30.622;104.088;2022-08-05T04:14:22;8.15;;;7.30;;
49530;SDS011;38889;30.622;104.088;2022-08-05T04:16:51;8.07;;;7.07;;
49530;SDS011;38889;30.622;104.088;2022-08-05T04:19:19;7.47;;;6.57;;
49530;SDS011;38889;30.622;104.088;2022-08-05T04:21:46;9.63;;;6.47;;
49530;SDS011;38889;30.622;104.088;2022-08-05T04:24:14;7.22;;;6.40;;
49530;SDS011;38889;30.622;104.088;2022-08-05T04:26:41;8.98;;;7.25;;
49530;SDS011;38889;30.622;104.088;2022-08-05T04:29:08;8.13;;;7.32;;
49530;SDS011;38889;30.622;104.088;2022-08-05T04:31:35;8.35;;;7.65;;
49530;SDS011;38889;30.622;104.088;2022-08-05T04:34:03;8.38;;;7.57;;
49530;SDS011;38889;30.622;104.088;2022-08-05T04:36:30;8.52;;;7.63;;
49530;SDS011;38889;30.622;104.088;2022-08-05T04:38:57;8.45;;;7.65;;
49530;SDS011;38889;30.622;104.088;2022-08-05T04:41:24;8.40;;;7.63;;
49530;SDS011;38889;30.622;104.088;2022-08-05T04:43:52;10.52;;;8.43;;
49530;SDS011;38889;30.622;104.088;2022-08-05T04:46:19;8.50;;;7.70;;
49530;SDS011;38889;30.622;104.088;2022-08-05T04:48:46;8.95;;;8.05;;
49530;SDS011;38889;30.622;104.088;2022-08-05T04:51:13;9.43;;;8.52;;
49530;SDS011;38889;30.622;104.088;2022-08-05T04:53:41;9.02;;;8.20;;
49530;SDS011;38889;30.622;104.088;2022-08-05T04:56:09;9.77;;;8.88;;
49530;SDS011;38889;30.622;104.088;2022-08-05T04:58:36;9.80;;;8.90;;
49530;SDS011;38889;30.622;104.088;2022-08-05T05:01:03;10.18;;;9.23;;
49530;SDS011;38889;30.622;104.088;2022-08-05T05:03:30;9.63;;;8.75;;
49530;SDS011;38889;30.622;104.088;2022-08-05T05:05:57;9.88;;;8.98;;
49530;SDS011;38889;30.622;104.088;2022-08-05T05:08:25;10.32;;;9.30;;
49530;SDS011;38889;30.622;104.088;2022-08-05T05:10:52;10.23;;;9.32;;
49530;SDS011;38889;30.622;104.088;2022-08-05T05:13:20;11.52;;;10.43;;
49530;SDS011;38889;30.622;104.088;2022-08-05T05:15:48;10.23;;;9.32;;
49530;SDS011;38889;30.622;104.088;2022-08-05T05:18:15;10.75;;;9.75;;
49530;SDS011;38889;30.622;104.088;2022-08-05T05:20:43;10.77;;;9.80;;
49530;SDS011;38889;30.622;104.088;2022-08-05T05:23:12;10.65;;;9.65;;
49530;SDS011;38889;30.622;104.088;2022-08-05T05:25:40;10.13;;;9.23;;
49530;SDS011;38889;30.622;104.088;2022-08-05T05:28:08;10.45;;;9.45;;
49530;SDS011;38889;30.622;104.088;2022-08-05T05:30:36;11.07;;;9.98;;
49530;SDS011;38889;30.622;104.088;2022-08-05T05:33:04;9.40;;;8.48;;
49530;SDS011;38889;30.622;104.088;2022-08-05T05:35:33;9.88;;;8.98;;
49530;SDS011;38889;30.622;104.088;2022-08-05T05:40:37;9.27;;;8.25;;
49530;SDS011;38889;30.622;104.088;2022-08-05T05:43:04;9.50;;;8.60;;
49530;SDS011;38889;30.622;104.088;2022-08-05T05:45:31;9.60;;;8.48;;
49530;SDS011;38889;30.622;104.088;2022-08-05T05:47:59;10.13;;;8.32;;
49530;SDS011;38889;30.622;104.088;2022-08-05T05:50:26;11.05;;;10.05;;
49530;SDS011;38889;30.622;104.088;2022-08-05T05:52:54;15.75;;;14.27;;
49530;SDS011;38889;30.622;104.088;2022-08-05T05:55:21;15.88;;;14.48;;
49530;SDS011;38889;30.622;104.088;2022-08-05T05:57:49;14.75;;;13.45;;
49530;SDS011;38889;30.622;104.088;2022-08-05T06:00:17;13.40;;;12.20;;
49530;SDS011;38889;30.622;104.088;2022-08-05T06:02:47;12.88;;;11.77;;
49530;SDS011;38889;30.622;104.088;2022-08-05T06:05:15;15.02;;;13.77;;
49530;SDS011;38889;30.622;104.088;2022-08-05T06:07:44;15.48;;;14.05;;
49530;SDS011;38889;30.622;104.088;2022-08-05T06:10:15;15.05;;;13.65;;
49530;SDS011;38889;30.622;104.088;2022-08-05T06:12:42;14.90;;;13.65;;
49530;SDS011;38889;30.622;104.088;2022-08-05T06:15:10;13.40;;;12.30;;
49530;SDS011;38889;30.622;104.088;2022-08-05T06:17:38;13.05;;;11.75;;
49530;SDS011;38889;30.622;104.088;2022-08-05T06:20:05;12.63;;;11.52;;
49530;SDS011;38889;30.622;104.088;2022-08-05T06:22:34;11.10;;;10.20;;
49530;SDS011;38889;30.622;104.088;2022-08-05T06:25:11;13.35;;;12.15;;
49530;SDS011;38889;30.622;104.088;2022-08-05T06:27:38;15.43;;;14.02;;
49530;SDS011;38889;30.622;104.088;2022-08-05T06:30:07;14.52;;;13.25;;
49530;SDS011;38889;30.622;104.088;2022-08-05T06:32:41;15.43;;;14.13;;
49530;SDS011;38889;30.622;104.088;2022-08-05T06:35:18;14.30;;;13.07;;
49530;SDS011;38889;30.622;104.088;2022-08-05T06:37:45;14.43;;;13.23;;
49530;SDS011;38889;30.622;104.088;2022-08-05T06:40:13;13.10;;;12.00;;
49530;SDS011;38889;30.622;104.088;2022-08-05T06:42:40;12.75;;;11.63;;
49530;SDS011;38889;30.622;104.088;2022-08-05T06:45:08;11.82;;;10.80;;
49530;SDS011;38889;30.622;104.088;2022-08-05T06:47:36;10.35;;;9.48;;
49530;SDS011;38889;30.622;104.088;2022-08-05T06:50:03;10.85;;;9.93;;
49530;SDS011;38889;30.622;104.088;2022-08-05T06:52:32;10.20;;;9.30;;
49530;SDS011;38889;30.622;104.088;2022-08-05T06:55:00;10.60;;;9.70;;
49530;SDS011;38889;30.622;104.088;2022-08-05T06:57:28;10.93;;;9.93;;
49530;SDS011;38889;30.622;104.088;2022-08-05T06:59:55;11.27;;;10.27;;
49530;SDS011;38889;30.622;104.088;2022-08-05T07:02:22;10.57;;;9.75;;
49530;SDS011;38889;30.622;104.088;2022-08-05T07:04:50;10.77;;;9.88;;
49530;SDS011;38889;30.622;104.088;2022-08-05T07:07:17;10.38;;;9.48;;
49530;SDS011;38889;30.622;104.088;2022-08-05T07:09:44;11.68;;;10.68;;
49530;SDS011;38889;30.622;104.088;2022-08-05T07:12:12;10.48;;;9.57;;
49530;SDS011;38889;30.622;104.088;2022-08-05T07:17:44;10.43;;;9.52;;
49530;SDS011;38889;30.622;104.088;2022-08-05T07:20:11;10.02;;;9.23;;
49530;SDS011;38889;30.622;104.088;2022-08-05T07:22:39;10.55;;;9.75;;
49530;SDS011;38889;30.622;104.088;2022-08-05T07:25:06;10.30;;;9.45;;
49530;SDS011;38889;30.622;104.088;2022-08-05T07:27:34;10.50;;;9.60;;
49530;SDS011;38889;30.622;104.088;2022-08-05T07:30:20;9.75;;;8.90;;
49530;SDS011;38889;30.622;104.088;2022-08-05T07:32:48;10.20;;;9.40;;
49530;SDS011;38889;30.622;104.088;2022-08-05T07:35:16;10.63;;;9.73;;
49530;SDS011;38889;30.622;104.088;2022-08-05T07:37:43;10.20;;;9.40;;
49530;SDS011;38889;30.622;104.088;2022-08-05T07:40:10;11.63;;;10.63;;
49530;SDS011;38889;30.622;104.088;2022-08-05T07:42:38;11.52;;;10.63;;
49530;SDS011;38889;30.622;104.088;2022-08-05T07:45:05;11.15;;;10.25;;
49530;SDS011;38889;30.622;104.088;2022-08-05T07:47:33;11.15;;;10.15;;
49530;SDS011;38889;30.622;104.088;2022-08-05T07:50:01;10.88;;;9.98;;
49530;SDS011;38889;30.622;104.088;2022-08-05T07:52:28;10.93;;;10.02;;
49530;SDS011;38889;30.622;104.088;2022-08-05T07:54:56;10.38;;;9.57;;
49530;SDS011;38889;30.622;104.088;2022-08-05T07:57:23;10.15;;;9.35;;
49530;SDS011;38889;30.622;104.088;2022-08-05T07:59:50;10.55;;;9.65;;
49530;SDS011;38889;30.622;104.088;2022-08-05T08:02:22;10.10;;;9.30;;
49530;SDS011;38889;30.622;104.088;2022-08-05T08:04:50;11.23;;;10.32;;
49530;SDS011;38889;30.622;104.088;2022-08-05T08:07:18;10.38;;;9.57;;
49530;SDS011;38889;30.622;104.088;2022-08-05T08:09:46;10.63;;;9.82;;
49530;SDS011;38889;30.622;104.088;2022-08-05T08:12:16;10.05;;;9.25;;
49530;SDS011;38889;30.622;104.088;2022-08-05T08:14:44;10.57;;;9.77;;
49530;SDS011;38889;30.622;104.088;2022-08-05T08:17:11;10.40;;;9.57;;
49530;SDS011;38889;30.622;104.088;2022-08-05T08:19:39;10.20;;;9.40;;
49530;SDS011;38889;30.622;104.088;2022-08-05T08:22:07;10.85;;;10.00;;
49530;SDS011;38889;30.622;104.088;2022-08-05T08:24:35;9.98;;;9.18;;
49530;SDS011;38889;30.622;104.088;2022-08-05T08:27:04;10.07;;;9.27;;
49530;SDS011;38889;30.622;104.088;2022-08-05T08:29:32;10.52;;;9.68;;
49530;SDS011;38889;30.622;104.088;2022-08-05T08:31:59;10.82;;;9.93;;
49530;SDS011;38889;30.622;104.088;2022-08-05T08:34:27;10.65;;;9.80;;
49530;SDS011;38889;30.622;104.088;2022-08-05T08:36:54;10.43;;;9.63;;
49530;SDS011;38889;30.622;104.088;2022-08-05T08:39:22;10.32;;;9.52;;
49530;SDS011;38889;30.622;104.088;2022-08-05T08:41:49;10.32;;;9.52;;
49530;SDS011;38889;30.622;104.088;2022-08-05T08:44:20;9.95;;;9.13;;
49530;SDS011;38889;30.622;104.088;2022-08-05T08:46:49;10.73;;;9.82;;
49530;SDS011;38889;30.622;104.088;2022-08-05T08:49:18;10.57;;;9.68;;
49530;SDS011;38889;30.622;104.088;2022-08-05T08:51:55;10.80;;;9.93;;
49530;SDS011;38889;30.622;104.088;2022-08-05T08:54:34;10.82;;;9.93;;
49530;SDS011;38889;30.622;104.088;2022-08-05T08:57:18;11.43;;;10.55;;
49530;SDS011;38889;30.622;104.088;2022-08-05T08:59:47;10.80;;;9.90;;
49530;SDS011;38889;30.622;104.088;2022-08-05T09:02:16;10.77;;;9.90;;
49530;SDS011;38889;30.622;104.088;2022-08-05T09:04:46;10.40;;;9.60;;
49530;SDS011;38889;30.622;104.088;2022-08-05T09:07:13;10.57;;;9.77;;
49530;SDS011;38889;30.622;104.088;2022-08-05T09:09:41;10.85;;;10.00;;
49530;SDS011;38889;30.622;104.088;2022-08-05T09:12:09;11.48;;;10.57;;
49530;SDS011;38889;30.622;104.088;2022-08-05T09:14:37;10.15;;;9.35;;
49530;SDS011;38889;30.622;104.088;2022-08-05T09:17:06;11.35;;;10.45;;
49530;SDS011;38889;30.622;104.088;2022-08-05T09:19:57;11.93;;;10.98;;
49530;SDS011;38889;30.622;104.088;2022-08-05T09:22:25;11.45;;;10.55;;
49530;SDS011;38889;30.622;104.088;2022-08-05T09:24:56;12.15;;;11.15;;
49530;SDS011;38889;30.622;104.088;2022-08-05T09:27:32;11.13;;;10.30;;
49530;SDS011;38889;30.622;104.088;2022-08-05T09:30:02;11.88;;;10.98;;
49530;SDS011;38889;30.622;104.088;2022-08-05T09:32:35;11.70;;;10.80;;
49530;SDS011;38889;30.622;104.088;2022-08-05T09:35:11;11.27;;;10.38;;
49530;SDS011;38889;30.622;104.088;2022-08-05T09:37:49;11.53;;;10.63;;
49530;SDS011;38889;30.622;104.088;2022-08-05T09:40:30;10.93;;;10.13;;
49530;SDS011;38889;30.622;104.088;2022-08-05T09:43:01;11.43;;;10.52;;
49530;SDS011;38889;30.622;104.088;2022-08-05T09:45:35;11.80;;;10.80;;
49530;SDS011;38889;30.622;104.088;2022-08-05T09:48:23;12.07;;;11.07;;
49530;SDS011;38889;30.622;104.088;2022-08-05T09:51:03;11.80;;;10.90;;
49530;SDS011;38889;30.622;104.088;2022-08-05T09:53:49;11.85;;;10.85;;
49530;SDS011;38889;30.622;104.088;2022-08-05T09:56:27;12.48;;;11.48;;
49530;SDS011;38889;30.622;104.088;2022-08-05T09:59:01;11.60;;;10.70;;
49530;SDS011;38889;30.622;104.088;2022-08-05T10:01:30;12.13;;;11.20;;
49530;SDS011;38889;30.622;104.088;2022-08-05T10:04:04;11.77;;;10.88;;
49530;SDS011;38889;30.622;104.088;2022-08-05T10:06:33;11.52;;;10.63;;
49530;SDS011;38889;30.622;104.088;2022-08-05T10:09:10;12.00;;;11.07;;
49530;SDS011;38889;30.622;104.088;2022-08-05T10:11:41;12.70;;;11.70;;
49530;SDS011;38889;30.622;104.088;2022-08-05T10:17:18;13.00;;;11.90;;
49530;SDS011;38889;30.622;104.088;2022-08-05T10:19:45;12.75;;;11.75;;
49530;SDS011;38889;30.622;104.088;2022-08-05T10:22:12;13.10;;;12.10;;
49530;SDS011;38889;30.622;104.088;2022-08-05T10:24:40;13.75;;;12.55;;
49530;SDS011;38889;30.622;104.088;2022-08-05T10:27:08;13.48;;;12.27;;
49530;SDS011;38889;30.622;104.088;2022-08-05T10:29:38;13.90;;;12.70;;
49530;SDS011;38889;30.622;104.088;2022-08-05T10:32:05;14.15;;;12.95;;
49530;SDS011;38889;30.622;104.088;2022-08-05T10:34:33;14.82;;;13.63;;
49530;SDS011;38889;30.622;104.088;2022-08-05T10:37:00;15.23;;;13.73;;
49530;SDS011;38889;30.622;104.088;2022-08-05T10:39:29;14.95;;;13.65;;
49530;SDS011;38889;30.622;104.088;2022-08-05T10:42:06;15.02;;;13.73;;
49530;SDS011;38889;30.622;104.088;2022-08-05T10:44:44;14.43;;;13.13;;
49530;SDS011;38889;30.622;104.088;2022-08-05T10:47:12;15.40;;;14.07;;
49530;SDS011;38889;30.622;104.088;2022-08-05T10:52:44;15.32;;;14.02;;
49530;SDS011;38889;30.622;104.088;2022-08-05T10:55:18;15.18;;;13.88;;
49530;SDS011;38889;30.622;104.088;2022-08-05T10:57:45;15.40;;;13.90;;
49530;SDS011;38889;30.622;104.088;2022-08-05T11:05:32;15.05;;;13.75;;
49530;SDS011;38889;30.622;104.088;2022-08-05T11:08:01;14.93;;;13.68;;
49530;SDS011;38889;30.622;104.088;2022-08-05T11:10:31;14.45;;;13.20;;
49530;SDS011;38889;30.622;104.088;2022-08-05T11:13:02;13.73;;;12.48;;
49530;SDS011;38889;30.622;104.088;2022-08-05T11:15:37;13.98;;;12.88;;
49530;SDS011;38889;30.622;104.088;2022-08-05T11:20:35;14.65;;;13.32;;
49530;SDS011;38889;30.622;104.088;2022-08-05T11:28:52;14.15;;;12.90;;
49530;SDS011;38889;30.622;104.088;2022-08-05T11:31:20;15.10;;;13.82;;
49530;SDS011;38889;30.622;104.088;2022-08-05T11:34:09;15.73;;;14.25;;
49530;SDS011;38889;30.622;104.088;2022-08-05T11:39:07;15.60;;;14.13;;
49530;SDS011;38889;30.622;104.088;2022-08-05T11:41:36;14.73;;;13.52;;
49530;SDS011;38889;30.622;104.088;2022-08-05T11:44:05;14.88;;;13.57;;
49530;SDS011;38889;30.622;104.088;2022-08-05T11:49:12;15.05;;;13.75;;
49530;SDS011;38889;30.622;104.088;2022-08-05T11:51:41;14.82;;;13.43;;
49530;SDS011;38889;30.622;104.088;2022-08-05T11:54:14;14.10;;;12.90;;
49530;SDS011;38889;30.622;104.088;2022-08-05T11:56:55;14.57;;;13.38;;
49530;SDS011;38889;30.622;104.088;2022-08-05T11:59:23;15.00;;;13.57;;
49530;SDS011;38889;30.622;104.088;2022-08-05T12:02:05;14.20;;;13.00;;
49530;SDS011;38889;30.622;104.088;2022-08-05T12:07:09;14.48;;;13.18;;
49530;SDS011;38889;30.622;104.088;2022-08-05T12:09:38;14.13;;;12.85;;
49530;SDS011;38889;30.622;104.088;2022-08-05T12:12:10;13.50;;;12.30;;
49530;SDS011;38889;30.622;104.088;2022-08-05T12:14:40;13.13;;;12.02;;
49530;SDS011;38889;30.622;104.088;2022-08-05T12:17:10;14.05;;;12.85;;
49530;SDS011;38889;30.622;104.088;2022-08-05T12:22:15;13.73;;;12.52;;
49530;SDS011;38889;30.622;104.088;2022-08-05T12:24:46;14.60;;;13.18;;
49530;SDS011;38889;30.622;104.088;2022-08-05T12:29:59;12.45;;;11.45;;
49530;SDS011;38889;30.622;104.088;2022-08-05T12:32:31;13.85;;;12.65;;
49530;SDS011;38889;30.622;104.088;2022-08-05T12:35:20;13.50;;;12.40;;
49530;SDS011;38889;30.622;104.088;2022-08-05T12:37:48;12.70;;;11.60;;
49530;SDS011;38889;30.622;104.088;2022-08-05T12:40:16;13.32;;;12.20;;
49530;SDS011;38889;30.622;104.088;2022-08-05T12:42:49;14.25;;;13.00;;
49530;SDS011;38889;30.622;104.088;2022-08-05T12:45:16;13.65;;;12.45;;
49530;SDS011;38889;30.622;104.088;2022-08-05T12:47:44;13.25;;;12.15;;
49530;SDS011;38889;30.622;104.088;2022-08-05T12:50:18;13.73;;;12.63;;
49530;SDS011;38889;30.622;104.088;2022-08-05T12:52:55;14.55;;;13.15;;
49530;SDS011;38889;30.622;104.088;2022-08-05T12:55:26;14.50;;;13.20;;
49530;SDS011;38889;30.622;104.088;2022-08-05T12:57:56;14.43;;;13.23;;
49530;SDS011;38889;30.622;104.088;2022-08-05T13:00:26;14.85;;;13.63;;
49530;SDS011;38889;30.622;104.088;2022-08-05T13:02:59;14.38;;;13.18;;
49530;SDS011;38889;30.622;104.088;2022-08-05T13:05:26;14.73;;;13.43;;
49530;SDS011;38889;30.622;104.088;2022-08-05T13:07:55;14.68;;;13.48;;
49530;SDS011;38889;30.622;104.088;2022-08-05T13:10:23;14.77;;;13.48;;
49530;SDS011;38889;30.622;104.088;2022-08-05T13:12:51;15.02;;;13.82;;
49530;SDS011;38889;30.622;104.088;2022-08-05T13:15:22;15.23;;;13.80;;
49530;SDS011;38889;30.622;104.088;2022-08-05T13:17:57;14.48;;;13.27;;
49530;SDS011;38889;30.622;104.088;2022-08-05T13:20:32;14.70;;;13.50;;
49530;SDS011;38889;30.622;104.088;2022-08-05T13:23:00;14.68;;;13.48;;
49530;SDS011;38889;30.622;104.088;2022-08-05T13:25:27;14.20;;;13.00;;
49530;SDS011;38889;30.622;104.088;2022-08-05T13:27:55;14.00;;;12.90;;
49530;SDS011;38889;30.622;104.088;2022-08-05T13:30:22;14.38;;;13.27;;
49530;SDS011;38889;30.622;104.088;2022-08-05T13:32:51;14.18;;;13.00;;
49530;SDS011;38889;30.622;104.088;2022-08-05T13:35:19;15.52;;;14.13;;
49530;SDS011;38889;30.622;104.088;2022-08-05T13:37:47;14.73;;;13.43;;
49530;SDS011;38889;30.622;104.088;2022-08-05T13:40:15;15.25;;;13.95;;
49530;SDS011;38889;30.622;104.088;2022-08-05T13:42:43;16.00;;;14.70;;
49530;SDS011;38889;30.622;104.088;2022-08-05T13:45:10;15.68;;;14.38;;
49530;SDS011;38889;30.622;104.088;2022-08-05T13:47:38;15.90;;;14.60;;
49530;SDS011;38889;30.622;104.088;2022-08-05T13:50:05;15.18;;;13.88;;
49530;SDS011;38889;30.622;104.088;2022-08-05T13:52:34;15.82;;;14.52;;
49530;SDS011;38889;30.622;104.088;2022-08-05T13:55:02;15.15;;;13.95;;
49530;SDS011;38889;30.622;104.088;2022-08-05T13:57:29;15.57;;;14.27;;
49530;SDS011;38889;30.622;104.088;2022-08-05T13:59:57;15.00;;;13.80;;
49530;SDS011;38889;30.622;104.088;2022-08-05T14:02:24;15.07;;;13.82;;
49530;SDS011;38889;30.622;104.088;2022-08-05T14:04:52;15.57;;;14.27;;
49530;SDS011;38889;30.622;104.088;2022-08-05T14:07:39;14.65;;;13.45;;
49530;SDS011;38889;30.622;104.088;2022-08-05T14:10:09;15.82;;;14.52;;
49530;SDS011;38889;30.622;104.088;2022-08-05T14:12:36;14.68;;;13.30;;
49530;SDS011;38889;30.622;104.088;2022-08-05T14:15:05;14.90;;;13.63;;
49530;SDS011;38889;30.622;104.088;2022-08-05T14:17:32;16.65;;;15.20;;
49530;SDS011;38889;30.622;104.088;2022-08-05T14:20:04;14.02;;;12.82;;
49530;SDS011;38889;30.622;104.088;2022-08-05T14:22:33;16.48;;;14.98;;
49530;SDS011;38889;30.622;104.088;2022-08-05T14:25:03;17.30;;;15.77;;
49530;SDS011;38889;30.622;104.088;2022-08-05T14:27:31;18.02;;;16.42;;
49530;SDS011;38889;30.622;104.088;2022-08-05T14:29:58;19.50;;;17.80;;
49530;SDS011;38889;30.622;104.088;2022-08-05T14:32:26;20.30;;;18.60;;
49530;SDS011;38889;30.622;104.088;2022-08-05T14:34:55;20.10;;;18.40;;
49530;SDS011;38889;30.622;104.088;2022-08-05T14:37:23;23.73;;;21.83;;
49530;SDS011;38889;30.622;104.088;2022-08-05T14:39:50;22.63;;;20.73;;
49530;SDS011;38889;30.622;104.088;2022-08-05T14:42:18;22.75;;;20.75;;
49530;SDS011;38889;30.622;104.088;2022-08-05T14:44:47;22.38;;;20.58;;
49530;SDS011;38889;30.622;104.088;2022-08-05T14:47:15;21.42;;;19.52;;
49530;SDS011;38889;30.622;104.088;2022-08-05T14:49:43;21.23;;;19.42;;
49530;SDS011;38889;30.622;104.088;2022-08-05T14:52:10;20.63;;;18.88;;
49530;SDS011;38889;30.622;104.088;2022-08-05T14:54:38;20.30;;;18.60;;
49530;SDS011;38889;30.622;104.088;2022-08-05T14:57:05;20.85;;;19.15;;
49530;SDS011;38889;30.622;104.088;2022-08-05T14:59:33;20.35;;;18.60;;
49530;SDS011;38889;30.622;104.088;2022-08-05T15:02:00;20.10;;;18.30;;
49530;SDS011;38889;30.622;104.088;2022-08-05T15:04:29;19.85;;;18.15;;
49530;SDS011;38889;30.622;104.088;2022-08-05T15:06:56;19.30;;;17.70;;